sensor_id;sensor_type;location;lat;lon;timestamp;P1;durP1;ratioP1;P2;durP2;ratioP2
66927;SDS011;59882;45.624;11.698;2022-08-03T00:01:32;7.78;;;6.93;;
66927;SDS011;59882;45.624;11.698;2022-08-03T00:03:58;10.52;;;8.23;;
66927;SDS011;59882;45.624;11.698;2022-08-03T00:06:23;11.63;;;8.10;;
66927;SDS011;59882;45.624;11.698;2022-08-03T00:08:49;9.67;;;8.07;;
66927;SDS011;59882;45.624;11.698;2022-08-03T00:11:15;10.90;;;8.57;;
66927;SDS011;59882;45.624;11.698;2022-08-03T00:13:41;10.10;;;9.07;;
66927;SDS011;59882;45.624;11.698;2022-08-03T00:16:06;12.25;;;8.98;;
66927;SDS011;59882;45.624;11.698;2022-08-03T00:18:33;10.48;;;7.95;;
66927;SDS011;59882;45.624;11.698;2022-08-03T00:20:58;10.73;;;8.73;;
66927;SDS011;59882;45.624;11.698;2022-08-03T00:23:24;9.03;;;8.00;;
66927;SDS011;59882;45.624;11.698;2022-08-03T00:25:49;10.43;;;8.20;;
66927;SDS011;59882;45.624;11.698;2022-08-03T00:28:15;12.07;;;7.68;;
66927;SDS011;59882;45.624;11.698;2022-08-03T00:30:41;8.77;;;7.30;;
66927;SDS011;59882;45.624;11.698;2022-08-03T00:33:07;9.35;;;6.90;;
66927;SDS011;59882;45.624;11.698;2022-08-03T00:35:34;8.93;;;6.70;;
66927;SDS011;59882;45.624;11.698;2022-08-03T00:38:00;9.23;;;7.32;;
66927;SDS011;59882;45.624;11.698;2022-08-03T00:40:25;9.90;;;7.13;;
66927;SDS011;59882;45.624;11.698;2022-08-03T00:42:55;11.03;;;7.57;;
66927;SDS011;59882;45.624;11.698;2022-08-03T00:45:30;12.85;;;8.75;;
66927;SDS011;59882;45.624;11.698;2022-08-03T00:47:57;12.10;;;7.68;;
66927;SDS011;59882;45.624;11.698;2022-08-03T00:50:26;9.95;;;6.72;;
66927;SDS011;59882;45.624;11.698;2022-08-03T00:52:55;13.13;;;7.80;;
66927;SDS011;59882;45.624;11.698;2022-08-03T00:55:23;9.30;;;7.60;;
66927;SDS011;59882;45.624;11.698;2022-08-03T00:57:49;11.52;;;7.97;;
66927;SDS011;59882;45.624;11.698;2022-08-03T01:00:16;8.95;;;7.70;;
66927;SDS011;59882;45.624;11.698;2022-08-03T01:02:43;10.23;;;7.32;;
66927;SDS011;59882;45.624;11.698;2022-08-03T01:05:10;11.70;;;7.30;;
66927;SDS011;59882;45.624;11.698;2022-08-03T01:13:10;9.73;;;7.13;;
66927;SDS011;59882;45.624;11.698;2022-08-03T01:18:13;9.37;;;6.50;;
66927;SDS011;59882;45.624;11.698;2022-08-03T01:20:50;6.70;;;5.75;;
66927;SDS011;59882;45.624;11.698;2022-08-03T01:23:30;8.52;;;5.78;;
66927;SDS011;59882;45.624;11.698;2022-08-03T01:26:25;10.38;;;6.13;;
66927;SDS011;59882;45.624;11.698;2022-08-03T01:32:11;8.43;;;5.73;;
66927;SDS011;59882;45.624;11.698;2022-08-03T01:34:42;8.07;;;5.50;;
66927;SDS011;59882;45.624;11.698;2022-08-03T01:37:13;10.32;;;5.70;;
66927;SDS011;59882;45.624;11.698;2022-08-03T01:39:42;6.00;;;4.93;;
66927;SDS011;59882;45.624;11.698;2022-08-03T01:42:09;8.23;;;5.13;;
66927;SDS011;59882;45.624;11.698;2022-08-03T01:44:39;8.93;;;4.90;;
66927;SDS011;59882;45.624;11.698;2022-08-03T01:47:06;7.95;;;5.10;;
66927;SDS011;59882;45.624;11.698;2022-08-03T01:49:34;7.88;;;4.28;;
66927;SDS011;59882;45.624;11.698;2022-08-03T01:52:03;8.85;;;4.60;;
66927;SDS011;59882;45.624;11.698;2022-08-03T01:54:30;5.30;;;3.70;;
66927;SDS011;59882;45.624;11.698;2022-08-03T01:56:59;7.07;;;4.23;;
66927;SDS011;59882;45.624;11.698;2022-08-03T01:59:26;6.00;;;4.10;;
66927;SDS011;59882;45.624;11.698;2022-08-03T02:01:54;6.40;;;3.83;;
66927;SDS011;59882;45.624;11.698;2022-08-03T02:04:21;5.18;;;3.80;;
66927;SDS011;59882;45.624;11.698;2022-08-03T02:06:49;8.57;;;3.90;;
66927;SDS011;59882;45.624;11.698;2022-08-03T02:09:16;9.10;;;4.10;;
66927;SDS011;59882;45.624;11.698;2022-08-03T02:11:45;7.18;;;3.75;;
66927;SDS011;59882;45.624;11.698;2022-08-03T02:14:11;6.68;;;3.28;;
66927;SDS011;59882;45.624;11.698;2022-08-03T02:16:39;7.30;;;3.60;;
66927;SDS011;59882;45.624;11.698;2022-08-03T02:19:05;5.53;;;3.15;;
66927;SDS011;59882;45.624;11.698;2022-08-03T02:21:32;7.70;;;3.57;;
66927;SDS011;59882;45.624;11.698;2022-08-03T02:24:01;5.75;;;3.40;;
66927;SDS011;59882;45.624;11.698;2022-08-03T02:26:28;6.30;;;4.20;;
66927;SDS011;59882;45.624;11.698;2022-08-03T02:28:55;6.03;;;3.88;;
66927;SDS011;59882;45.624;11.698;2022-08-03T02:31:26;8.68;;;3.70;;
66927;SDS011;59882;45.624;11.698;2022-08-03T02:34:02;6.43;;;4.03;;
66927;SDS011;59882;45.624;11.698;2022-08-03T02:36:34;5.95;;;3.30;;
66927;SDS011;59882;45.624;11.698;2022-08-03T02:39:03;6.28;;;3.70;;
66927;SDS011;59882;45.624;11.698;2022-08-03T02:41:33;7.53;;;3.90;;
66927;SDS011;59882;45.624;11.698;2022-08-03T02:44:08;6.95;;;3.42;;
66927;SDS011;59882;45.624;11.698;2022-08-03T02:46:41;6.87;;;4.00;;
66927;SDS011;59882;45.624;11.698;2022-08-03T02:49:09;7.18;;;3.90;;
66927;SDS011;59882;45.624;11.698;2022-08-03T02:51:37;7.40;;;3.55;;
66927;SDS011;59882;45.624;11.698;2022-08-03T02:54:05;7.88;;;3.25;;
66927;SDS011;59882;45.624;11.698;2022-08-03T02:56:33;5.97;;;3.65;;
66927;SDS011;59882;45.624;11.698;2022-08-03T02:59:01;7.57;;;3.67;;
66927;SDS011;59882;45.624;11.698;2022-08-03T03:01:28;5.00;;;3.20;;
66927;SDS011;59882;45.624;11.698;2022-08-03T03:03:55;6.47;;;2.63;;
66927;SDS011;59882;45.624;11.698;2022-08-03T03:06:22;6.97;;;2.72;;
66927;SDS011;59882;45.624;11.698;2022-08-03T03:08:51;5.57;;;3.17;;
66927;SDS011;59882;45.624;11.698;2022-08-03T03:11:18;6.23;;;2.67;;
66927;SDS011;59882;45.624;11.698;2022-08-03T03:13:46;4.25;;;2.25;;
66927;SDS011;59882;45.624;11.698;2022-08-03T03:16:13;4.07;;;2.10;;
66927;SDS011;59882;45.624;11.698;2022-08-03T03:18:40;6.18;;;2.35;;
66927;SDS011;59882;45.624;11.698;2022-08-03T03:21:09;8.25;;;2.42;;
66927;SDS011;59882;45.624;11.698;2022-08-03T03:23:35;5.03;;;2.07;;
66927;SDS011;59882;45.624;11.698;2022-08-03T03:26:02;5.20;;;2.20;;
66927;SDS011;59882;45.624;11.698;2022-08-03T03:28:29;5.53;;;2.40;;
66927;SDS011;59882;45.624;11.698;2022-08-03T03:30:55;5.75;;;2.03;;
66927;SDS011;59882;45.624;11.698;2022-08-03T03:33:22;5.22;;;2.20;;
66927;SDS011;59882;45.624;11.698;2022-08-03T03:35:48;5.67;;;2.40;;
66927;SDS011;59882;45.624;11.698;2022-08-03T03:38:15;5.78;;;2.90;;
66927;SDS011;59882;45.624;11.698;2022-08-03T03:40:41;5.05;;;3.10;;
66927;SDS011;59882;45.624;11.698;2022-08-03T03:43:08;8.37;;;3.13;;
66927;SDS011;59882;45.624;11.698;2022-08-03T03:45:35;4.60;;;2.43;;
66927;SDS011;59882;45.624;11.698;2022-08-03T03:48:02;3.50;;;1.75;;
66927;SDS011;59882;45.624;11.698;2022-08-03T03:50:33;4.65;;;1.77;;
66927;SDS011;59882;45.624;11.698;2022-08-03T03:53:00;4.53;;;2.08;;
66927;SDS011;59882;45.624;11.698;2022-08-03T03:55:26;5.50;;;1.65;;
66927;SDS011;59882;45.624;11.698;2022-08-03T03:57:52;3.77;;;1.67;;
66927;SDS011;59882;45.624;11.698;2022-08-03T04:00:18;5.30;;;1.40;;
66927;SDS011;59882;45.624;11.698;2022-08-03T04:02:44;3.92;;;1.63;;
66927;SDS011;59882;45.624;11.698;2022-08-03T04:05:11;5.65;;;1.88;;
66927;SDS011;59882;45.624;11.698;2022-08-03T04:08:09;3.25;;;1.60;;
66927;SDS011;59882;45.624;11.698;2022-08-03T04:14:05;4.13;;;1.70;;
66927;SDS011;59882;45.624;11.698;2022-08-03T04:16:35;3.50;;;1.65;;
66927;SDS011;59882;45.624;11.698;2022-08-03T04:19:07;4.55;;;2.10;;
66927;SDS011;59882;45.624;11.698;2022-08-03T04:21:42;5.70;;;2.05;;
66927;SDS011;59882;45.624;11.698;2022-08-03T04:24:11;6.67;;;1.80;;
66927;SDS011;59882;45.624;11.698;2022-08-03T04:26:39;6.50;;;2.58;;
66927;SDS011;59882;45.624;11.698;2022-08-03T04:29:07;8.70;;;2.58;;
66927;SDS011;59882;45.624;11.698;2022-08-03T04:31:34;7.57;;;2.30;;
66927;SDS011;59882;45.624;11.698;2022-08-03T04:34:02;4.53;;;2.40;;
66927;SDS011;59882;45.624;11.698;2022-08-03T04:36:31;5.37;;;2.20;;
66927;SDS011;59882;45.624;11.698;2022-08-03T04:39:12;5.38;;;2.30;;
66927;SDS011;59882;45.624;11.698;2022-08-03T04:41:40;6.20;;;2.10;;
66927;SDS011;59882;45.624;11.698;2022-08-03T04:44:08;9.50;;;2.40;;
66927;SDS011;59882;45.624;11.698;2022-08-03T04:46:36;6.63;;;2.22;;
66927;SDS011;59882;45.624;11.698;2022-08-03T04:49:04;5.43;;;2.13;;
66927;SDS011;59882;45.624;11.698;2022-08-03T04:51:30;5.40;;;1.95;;
66927;SDS011;59882;45.624;11.698;2022-08-03T04:53:58;8.07;;;2.75;;
66927;SDS011;59882;45.624;11.698;2022-08-03T04:56:24;5.03;;;1.80;;
66927;SDS011;59882;45.624;11.698;2022-08-03T04:58:50;4.63;;;2.03;;
66927;SDS011;59882;45.624;11.698;2022-08-03T05:01:16;8.75;;;2.10;;
66927;SDS011;59882;45.624;11.698;2022-08-03T05:03:44;5.28;;;1.90;;
66927;SDS011;59882;45.624;11.698;2022-08-03T05:06:10;7.28;;;2.05;;
66927;SDS011;59882;45.624;11.698;2022-08-03T05:08:36;5.00;;;2.03;;
66927;SDS011;59882;45.624;11.698;2022-08-03T05:11:02;5.00;;;2.10;;
66927;SDS011;59882;45.624;11.698;2022-08-03T05:13:28;5.70;;;2.20;;
66927;SDS011;59882;45.624;11.698;2022-08-03T05:15:54;6.00;;;2.17;;
66927;SDS011;59882;45.624;11.698;2022-08-03T05:18:19;4.23;;;1.77;;
66927;SDS011;59882;45.624;11.698;2022-08-03T05:20:45;7.30;;;2.10;;
66927;SDS011;59882;45.624;11.698;2022-08-03T05:23:11;6.97;;;2.33;;
66927;SDS011;59882;45.624;11.698;2022-08-03T05:25:36;5.78;;;1.98;;
66927;SDS011;59882;45.624;11.698;2022-08-03T05:28:02;4.70;;;1.83;;
66927;SDS011;59882;45.624;11.698;2022-08-03T05:30:28;4.57;;;2.10;;
66927;SDS011;59882;45.624;11.698;2022-08-03T05:32:53;5.70;;;1.83;;
66927;SDS011;59882;45.624;11.698;2022-08-03T05:35:19;7.25;;;2.00;;
66927;SDS011;59882;45.624;11.698;2022-08-03T05:37:45;4.17;;;1.70;;
66927;SDS011;59882;45.624;11.698;2022-08-03T05:40:10;4.63;;;2.10;;
66927;SDS011;59882;45.624;11.698;2022-08-03T05:42:36;4.05;;;1.20;;
66927;SDS011;59882;45.624;11.698;2022-08-03T05:45:03;6.80;;;1.50;;
66927;SDS011;59882;45.624;11.698;2022-08-03T05:47:42;6.97;;;1.58;;
66927;SDS011;59882;45.624;11.698;2022-08-03T05:50:11;5.43;;;1.80;;
66927;SDS011;59882;45.624;11.698;2022-08-03T05:52:38;6.97;;;1.23;;
66927;SDS011;59882;45.624;11.698;2022-08-03T05:55:07;5.43;;;1.23;;
66927;SDS011;59882;45.624;11.698;2022-08-03T05:57:34;5.22;;;1.33;;
66927;SDS011;59882;45.624;11.698;2022-08-03T06:00:03;7.65;;;1.58;;
66927;SDS011;59882;45.624;11.698;2022-08-03T06:02:30;4.30;;;1.58;;
66927;SDS011;59882;45.624;11.698;2022-08-03T06:04:56;4.23;;;1.53;;
66927;SDS011;59882;45.624;11.698;2022-08-03T06:07:21;6.77;;;2.13;;
66927;SDS011;59882;45.624;11.698;2022-08-03T06:09:47;8.98;;;2.00;;
66927;SDS011;59882;45.624;11.698;2022-08-03T06:12:13;5.35;;;2.10;;
66927;SDS011;59882;45.624;11.698;2022-08-03T06:14:39;4.43;;;1.73;;
66927;SDS011;59882;45.624;11.698;2022-08-03T06:17:05;5.80;;;2.28;;
66927;SDS011;59882;45.624;11.698;2022-08-03T06:19:30;6.27;;;2.40;;
66927;SDS011;59882;45.624;11.698;2022-08-03T06:21:56;6.28;;;2.10;;
66927;SDS011;59882;45.624;11.698;2022-08-03T06:24:22;5.00;;;1.90;;
66927;SDS011;59882;45.624;11.698;2022-08-03T06:26:48;3.70;;;1.63;;
66927;SDS011;59882;45.624;11.698;2022-08-03T06:29:13;7.40;;;2.10;;
66927;SDS011;59882;45.624;11.698;2022-08-03T06:31:39;4.70;;;1.92;;
66927;SDS011;59882;45.624;11.698;2022-08-03T06:34:04;4.00;;;2.10;;
66927;SDS011;59882;45.624;11.698;2022-08-03T06:36:30;4.43;;;1.70;;
66927;SDS011;59882;45.624;11.698;2022-08-03T06:38:56;5.47;;;2.00;;
66927;SDS011;59882;45.624;11.698;2022-08-03T06:41:23;4.30;;;1.58;;
66927;SDS011;59882;45.624;11.698;2022-08-03T06:43:50;5.20;;;1.85;;
66927;SDS011;59882;45.624;11.698;2022-08-03T06:46:15;3.30;;;1.80;;
66927;SDS011;59882;45.624;11.698;2022-08-03T06:48:41;9.50;;;2.10;;
66927;SDS011;59882;45.624;11.698;2022-08-03T06:51:07;5.82;;;1.83;;
66927;SDS011;59882;45.624;11.698;2022-08-03T06:53:33;4.23;;;1.90;;
66927;SDS011;59882;45.624;11.698;2022-08-03T06:55:59;5.72;;;1.80;;
66927;SDS011;59882;45.624;11.698;2022-08-03T06:58:24;5.73;;;1.40;;
66927;SDS011;59882;45.624;11.698;2022-08-03T07:00:50;6.03;;;1.80;;
66927;SDS011;59882;45.624;11.698;2022-08-03T07:03:16;5.45;;;1.90;;
66927;SDS011;59882;45.624;11.698;2022-08-03T07:05:42;5.53;;;1.73;;
66927;SDS011;59882;45.624;11.698;2022-08-03T07:08:10;7.85;;;2.00;;
66927;SDS011;59882;45.624;11.698;2022-08-03T07:10:36;3.65;;;1.80;;
66927;SDS011;59882;45.624;11.698;2022-08-03T07:13:02;5.57;;;1.93;;
66927;SDS011;59882;45.624;11.698;2022-08-03T07:15:28;4.07;;;1.95;;
66927;SDS011;59882;45.624;11.698;2022-08-03T07:17:55;8.93;;;1.90;;
66927;SDS011;59882;45.624;11.698;2022-08-03T07:20:20;4.05;;;1.70;;
66927;SDS011;59882;45.624;11.698;2022-08-03T07:22:46;3.67;;;1.60;;
66927;SDS011;59882;45.624;11.698;2022-08-03T07:25:12;6.47;;;1.80;;
66927;SDS011;59882;45.624;11.698;2022-08-03T07:27:42;3.70;;;1.70;;
66927;SDS011;59882;45.624;11.698;2022-08-03T07:30:08;6.18;;;1.45;;
66927;SDS011;59882;45.624;11.698;2022-08-03T07:32:34;6.03;;;1.67;;
66927;SDS011;59882;45.624;11.698;2022-08-03T07:35:00;5.43;;;1.77;;
66927;SDS011;59882;45.624;11.698;2022-08-03T07:37:26;4.38;;;1.65;;
66927;SDS011;59882;45.624;11.698;2022-08-03T07:39:52;8.52;;;2.08;;
66927;SDS011;59882;45.624;11.698;2022-08-03T07:42:17;9.30;;;2.13;;
66927;SDS011;59882;45.624;11.698;2022-08-03T07:44:43;15.63;;;2.93;;
66927;SDS011;59882;45.624;11.698;2022-08-03T07:47:09;27.67;;;4.63;;
66927;SDS011;59882;45.624;11.698;2022-08-03T07:49:37;18.35;;;1.85;;
66927;SDS011;59882;45.624;11.698;2022-08-03T07:52:04;4.50;;;1.63;;
66927;SDS011;59882;45.624;11.698;2022-08-03T07:54:49;5.00;;;1.88;;
66927;SDS011;59882;45.624;11.698;2022-08-03T07:57:15;3.90;;;1.80;;
66927;SDS011;59882;45.624;11.698;2022-08-03T07:59:40;4.13;;;1.70;;
66927;SDS011;59882;45.624;11.698;2022-08-03T08:02:06;3.90;;;1.70;;
66927;SDS011;59882;45.624;11.698;2022-08-03T08:04:32;3.47;;;1.58;;
66927;SDS011;59882;45.624;11.698;2022-08-03T08:06:58;3.60;;;1.80;;
66927;SDS011;59882;45.624;11.698;2022-08-03T08:09:23;3.53;;;1.47;;
66927;SDS011;59882;45.624;11.698;2022-08-03T08:11:49;4.40;;;1.45;;
66927;SDS011;59882;45.624;11.698;2022-08-03T08:14:15;3.20;;;1.57;;
66927;SDS011;59882;45.624;11.698;2022-08-03T08:16:40;4.13;;;1.60;;
66927;SDS011;59882;45.624;11.698;2022-08-03T08:19:06;3.57;;;1.60;;
66927;SDS011;59882;45.624;11.698;2022-08-03T08:21:32;7.03;;;2.20;;
66927;SDS011;59882;45.624;11.698;2022-08-03T08:23:58;7.00;;;1.77;;
66927;SDS011;59882;45.624;11.698;2022-08-03T08:26:24;5.70;;;1.73;;
66927;SDS011;59882;45.624;11.698;2022-08-03T08:28:49;5.53;;;2.00;;
66927;SDS011;59882;45.624;11.698;2022-08-03T08:31:16;4.00;;;1.67;;
66927;SDS011;59882;45.624;11.698;2022-08-03T08:33:42;3.63;;;1.70;;
66927;SDS011;59882;45.624;11.698;2022-08-03T08:36:08;5.40;;;1.73;;
66927;SDS011;59882;45.624;11.698;2022-08-03T08:38:34;5.57;;;1.90;;
66927;SDS011;59882;45.624;11.698;2022-08-03T08:40:59;5.22;;;2.08;;
66927;SDS011;59882;45.624;11.698;2022-08-03T08:43:25;4.23;;;1.87;;
66927;SDS011;59882;45.624;11.698;2022-08-03T08:45:52;4.97;;;2.03;;
66927;SDS011;59882;45.624;11.698;2022-08-03T08:48:21;5.15;;;1.98;;
66927;SDS011;59882;45.624;11.698;2022-08-03T08:50:51;4.25;;;2.05;;
66927;SDS011;59882;45.624;11.698;2022-08-03T08:53:18;3.57;;;2.03;;
66927;SDS011;59882;45.624;11.698;2022-08-03T08:55:45;4.53;;;1.90;;
66927;SDS011;59882;45.624;11.698;2022-08-03T08:58:12;5.93;;;2.10;;
66927;SDS011;59882;45.624;11.698;2022-08-03T09:00:40;4.43;;;1.58;;
66927;SDS011;59882;45.624;11.698;2022-08-03T09:03:09;3.97;;;2.13;;
66927;SDS011;59882;45.624;11.698;2022-08-03T09:05:36;3.93;;;1.70;;
66927;SDS011;59882;45.624;11.698;2022-08-03T09:08:04;3.65;;;2.05;;
66927;SDS011;59882;45.624;11.698;2022-08-03T09:10:30;5.18;;;1.63;;
66927;SDS011;59882;45.624;11.698;2022-08-03T09:12:55;4.17;;;1.73;;
66927;SDS011;59882;45.624;11.698;2022-08-03T09:15:28;5.82;;;2.08;;
66927;SDS011;59882;45.624;11.698;2022-08-03T09:17:57;4.68;;;1.95;;
66927;SDS011;59882;45.624;11.698;2022-08-03T09:20:25;4.27;;;1.83;;
66927;SDS011;59882;45.624;11.698;2022-08-03T09:23:05;3.40;;;2.03;;
66927;SDS011;59882;45.624;11.698;2022-08-03T09:25:41;5.10;;;1.88;;
66927;SDS011;59882;45.624;11.698;2022-08-03T09:30:39;5.78;;;1.75;;
66927;SDS011;59882;45.624;11.698;2022-08-03T09:33:08;4.73;;;1.60;;
66927;SDS011;59882;45.624;11.698;2022-08-03T09:35:45;4.22;;;1.80;;
66927;SDS011;59882;45.624;11.698;2022-08-03T09:38:12;4.65;;;2.00;;
66927;SDS011;59882;45.624;11.698;2022-08-03T09:40:41;4.10;;;1.90;;
66927;SDS011;59882;45.624;11.698;2022-08-03T09:43:08;6.05;;;1.85;;
66927;SDS011;59882;45.624;11.698;2022-08-03T09:45:35;4.37;;;1.90;;
66927;SDS011;59882;45.624;11.698;2022-08-03T09:48:20;4.78;;;2.10;;
66927;SDS011;59882;45.624;11.698;2022-08-03T09:50:53;3.60;;;1.90;;
66927;SDS011;59882;45.624;11.698;2022-08-03T09:53:28;4.47;;;2.00;;
66927;SDS011;59882;45.624;11.698;2022-08-03T09:55:58;5.27;;;1.83;;
66927;SDS011;59882;45.624;11.698;2022-08-03T09:58:26;5.25;;;1.85;;
66927;SDS011;59882;45.624;11.698;2022-08-03T10:03:18;3.57;;;1.70;;
66927;SDS011;59882;45.624;11.698;2022-08-03T10:05:44;4.43;;;1.58;;
66927;SDS011;59882;45.624;11.698;2022-08-03T10:08:14;6.90;;;2.00;;
66927;SDS011;59882;45.624;11.698;2022-08-03T10:10:44;5.40;;;1.75;;
66927;SDS011;59882;45.624;11.698;2022-08-03T10:13:15;5.53;;;1.70;;
66927;SDS011;59882;45.624;11.698;2022-08-03T10:15:43;4.05;;;2.03;;
66927;SDS011;59882;45.624;11.698;2022-08-03T10:18:10;5.10;;;1.58;;
66927;SDS011;59882;45.624;11.698;2022-08-03T10:20:37;3.47;;;1.67;;
66927;SDS011;59882;45.624;11.698;2022-08-03T10:23:15;3.97;;;1.73;;
66927;SDS011;59882;45.624;11.698;2022-08-03T10:25:42;3.78;;;1.92;;
66927;SDS011;59882;45.624;11.698;2022-08-03T10:28:12;5.18;;;1.83;;
66927;SDS011;59882;45.624;11.698;2022-08-03T10:30:41;3.08;;;1.52;;
66927;SDS011;59882;45.624;11.698;2022-08-03T10:33:26;3.20;;;1.67;;
66927;SDS011;59882;45.624;11.698;2022-08-03T10:35:55;3.80;;;1.90;;
66927;SDS011;59882;45.624;11.698;2022-08-03T10:38:26;3.85;;;1.63;;
66927;SDS011;59882;45.624;11.698;2022-08-03T10:40:56;3.83;;;1.98;;
66927;SDS011;59882;45.624;11.698;2022-08-03T10:43:26;4.50;;;1.52;;
66927;SDS011;59882;45.624;11.698;2022-08-03T10:45:56;3.60;;;2.00;;
66927;SDS011;59882;45.624;11.698;2022-08-03T10:48:24;5.07;;;1.80;;
66927;SDS011;59882;45.624;11.698;2022-08-03T10:50:50;5.35;;;2.03;;
66927;SDS011;59882;45.624;11.698;2022-08-03T10:53:16;5.40;;;2.05;;
66927;SDS011;59882;45.624;11.698;2022-08-03T10:56:06;5.15;;;2.30;;
66927;SDS011;59882;45.624;11.698;2022-08-03T10:59:16;6.00;;;1.90;;
66927;SDS011;59882;45.624;11.698;2022-08-03T11:01:49;4.47;;;1.80;;
66927;SDS011;59882;45.624;11.698;2022-08-03T11:04:20;4.40;;;2.08;;
66927;SDS011;59882;45.624;11.698;2022-08-03T11:06:54;5.30;;;2.03;;
66927;SDS011;59882;45.624;11.698;2022-08-03T11:09:40;3.90;;;1.92;;
66927;SDS011;59882;45.624;11.698;2022-08-03T11:14:52;5.33;;;2.47;;
66927;SDS011;59882;45.624;11.698;2022-08-03T11:17:20;4.25;;;1.98;;
66927;SDS011;59882;45.624;11.698;2022-08-03T11:19:47;4.10;;;1.85;;
66927;SDS011;59882;45.624;11.698;2022-08-03T11:22:17;3.38;;;1.77;;
66927;SDS011;59882;45.624;11.698;2022-08-03T11:41:10;3.27;;;1.70;;
66927;SDS011;59882;45.624;11.698;2022-08-03T11:43:10;4.93;;;1.67;;
66927;SDS011;59882;45.624;11.698;2022-08-03T11:46:07;5.63;;;1.73;;
66927;SDS011;59882;45.624;11.698;2022-08-03T11:51:04;4.88;;;1.60;;
66927;SDS011;59882;45.624;11.698;2022-08-03T11:53:32;4.80;;;1.47;;
66927;SDS011;59882;45.624;11.698;2022-08-03T11:55:59;3.08;;;1.95;;
66927;SDS011;59882;45.624;11.698;2022-08-03T11:58:26;4.50;;;2.05;;
66927;SDS011;59882;45.624;11.698;2022-08-03T12:00:56;4.07;;;1.83;;
66927;SDS011;59882;45.624;11.698;2022-08-03T12:03:30;4.45;;;2.00;;
66927;SDS011;59882;45.624;11.698;2022-08-03T12:05:57;5.73;;;2.20;;
66927;SDS011;59882;45.624;11.698;2022-08-03T12:08:32;3.35;;;1.70;;
66927;SDS011;59882;45.624;11.698;2022-08-03T12:10:59;4.45;;;1.70;;
66927;SDS011;59882;45.624;11.698;2022-08-03T12:13:26;6.63;;;2.03;;
66927;SDS011;59882;45.624;11.698;2022-08-03T12:16:05;3.38;;;1.58;;
66927;SDS011;59882;45.624;11.698;2022-08-03T12:18:31;4.43;;;1.50;;
66927;SDS011;59882;45.624;11.698;2022-08-03T12:21:07;2.80;;;1.17;;
66927;SDS011;59882;45.624;11.698;2022-08-03T12:23:36;3.80;;;1.73;;
66927;SDS011;59882;45.624;11.698;2022-08-03T12:26:03;4.13;;;1.57;;
66927;SDS011;59882;45.624;11.698;2022-08-03T12:28:30;3.45;;;1.58;;
66927;SDS011;59882;45.624;11.698;2022-08-03T12:30:59;3.30;;;1.83;;
66927;SDS011;59882;45.624;11.698;2022-08-03T12:33:31;3.40;;;1.70;;
66927;SDS011;59882;45.624;11.698;2022-08-03T12:36:17;3.72;;;1.95;;
66927;SDS011;59882;45.624;11.698;2022-08-03T12:38:43;4.40;;;1.77;;
66927;SDS011;59882;45.624;11.698;2022-08-03T12:41:25;3.90;;;2.10;;
66927;SDS011;59882;45.624;11.698;2022-08-03T12:43:52;4.93;;;2.10;;
66927;SDS011;59882;45.624;11.698;2022-08-03T12:46:19;4.28;;;2.00;;
66927;SDS011;59882;45.624;11.698;2022-08-03T12:54:09;3.83;;;1.70;;
66927;SDS011;59882;45.624;11.698;2022-08-03T12:59:30;4.70;;;2.00;;
66927;SDS011;59882;45.624;11.698;2022-08-03T13:01:56;3.30;;;2.13;;
66927;SDS011;59882;45.624;11.698;2022-08-03T13:04:29;3.72;;;2.17;;
66927;SDS011;59882;45.624;11.698;2022-08-03T13:07:07;4.13;;;2.22;;
66927;SDS011;59882;45.624;11.698;2022-08-03T13:12:11;4.70;;;2.80;;
66927;SDS011;59882;45.624;11.698;2022-08-03T13:14:38;9.18;;;3.17;;
66927;SDS011;59882;45.624;11.698;2022-08-03T13:17:04;3.67;;;2.60;;
66927;SDS011;59882;45.624;11.698;2022-08-03T13:19:33;3.42;;;2.83;;
66927;SDS011;59882;45.624;11.698;2022-08-03T13:22:00;4.40;;;3.00;;
66927;SDS011;59882;45.624;11.698;2022-08-03T13:24:36;4.65;;;3.00;;
66927;SDS011;59882;45.624;11.698;2022-08-03T13:27:02;3.90;;;3.40;;
66927;SDS011;59882;45.624;11.698;2022-08-03T13:29:29;4.85;;;3.58;;
66927;SDS011;59882;45.624;11.698;2022-08-03T13:31:54;4.57;;;3.03;;
66927;SDS011;59882;45.624;11.698;2022-08-03T13:34:20;3.97;;;3.40;;
66927;SDS011;59882;45.624;11.698;2022-08-03T13:36:46;4.47;;;3.78;;
66927;SDS011;59882;45.624;11.698;2022-08-03T13:39:11;4.23;;;3.77;;
66927;SDS011;59882;45.624;11.698;2022-08-03T13:41:37;4.30;;;3.90;;
66927;SDS011;59882;45.624;11.698;2022-08-03T13:44:03;4.28;;;3.88;;
66927;SDS011;59882;45.624;11.698;2022-08-03T13:46:28;5.70;;;4.50;;
66927;SDS011;59882;45.624;11.698;2022-08-03T13:48:54;4.60;;;3.97;;
66927;SDS011;59882;45.624;11.698;2022-08-03T13:51:19;4.60;;;4.17;;
66927;SDS011;59882;45.624;11.698;2022-08-03T13:53:45;3.87;;;3.47;;
66927;SDS011;59882;45.624;11.698;2022-08-03T13:56:10;5.13;;;4.63;;
66927;SDS011;59882;45.624;11.698;2022-08-03T13:58:36;5.18;;;4.68;;
66927;SDS011;59882;45.624;11.698;2022-08-03T14:01:02;5.97;;;4.40;;
66927;SDS011;59882;45.624;11.698;2022-08-03T14:03:27;4.90;;;4.50;;
66927;SDS011;59882;45.624;11.698;2022-08-03T14:05:53;7.10;;;4.70;;
66927;SDS011;59882;45.624;11.698;2022-08-03T14:08:18;5.57;;;4.93;;
66927;SDS011;59882;45.624;11.698;2022-08-03T14:10:44;9.77;;;5.07;;
66927;SDS011;59882;45.624;11.698;2022-08-03T14:13:10;5.03;;;4.60;;
66927;SDS011;59882;45.624;11.698;2022-08-03T14:15:37;5.45;;;4.95;;
66927;SDS011;59882;45.624;11.698;2022-08-03T14:18:03;5.57;;;5.07;;
66927;SDS011;59882;45.624;11.698;2022-08-03T14:20:29;5.10;;;4.70;;
66927;SDS011;59882;45.624;11.698;2022-08-03T14:22:54;5.67;;;5.17;;
66927;SDS011;59882;45.624;11.698;2022-08-03T14:25:20;5.18;;;4.78;;
66927;SDS011;59882;45.624;11.698;2022-08-03T14:27:46;5.70;;;5.20;;
66927;SDS011;59882;45.624;11.698;2022-08-03T14:30:11;5.68;;;5.18;;
66927;SDS011;59882;45.624;11.698;2022-08-03T14:32:38;5.57;;;5.07;;
66927;SDS011;59882;45.624;11.698;2022-08-03T14:35:03;5.53;;;5.03;;
66927;SDS011;59882;45.624;11.698;2022-08-03T14:37:29;6.32;;;5.60;;
66927;SDS011;59882;45.624;11.698;2022-08-03T14:39:55;6.20;;;5.70;;
66927;SDS011;59882;45.624;11.698;2022-08-03T14:42:21;7.47;;;4.95;;
66927;SDS011;59882;45.624;11.698;2022-08-03T14:44:47;5.93;;;5.43;;
66927;SDS011;59882;45.624;11.698;2022-08-03T14:47:13;5.27;;;4.77;;
66927;SDS011;59882;45.624;11.698;2022-08-03T14:49:39;5.07;;;4.65;;
66927;SDS011;59882;45.624;11.698;2022-08-03T14:52:04;6.43;;;5.20;;
66927;SDS011;59882;45.624;11.698;2022-08-03T14:54:30;6.07;;;5.57;;
66927;SDS011;59882;45.624;11.698;2022-08-03T14:56:56;5.83;;;5.33;;
66927;SDS011;59882;45.624;11.698;2022-08-03T14:59:22;5.93;;;5.45;;
66927;SDS011;59882;45.624;11.698;2022-08-03T15:01:48;5.77;;;5.37;;
66927;SDS011;59882;45.624;11.698;2022-08-03T15:04:14;6.60;;;6.00;;
66927;SDS011;59882;45.624;11.698;2022-08-03T15:06:39;6.00;;;5.40;;
66927;SDS011;59882;45.624;11.698;2022-08-03T15:09:05;5.72;;;5.22;;
66927;SDS011;59882;45.624;11.698;2022-08-03T15:11:30;5.27;;;4.77;;
66927;SDS011;59882;45.624;11.698;2022-08-03T15:13:56;5.13;;;4.63;;
66927;SDS011;59882;45.624;11.698;2022-08-03T15:16:22;5.85;;;4.38;;
66927;SDS011;59882;45.624;11.698;2022-08-03T15:18:47;5.40;;;4.60;;
66927;SDS011;59882;45.624;11.698;2022-08-03T15:21:13;5.13;;;4.20;;
66927;SDS011;59882;45.624;11.698;2022-08-03T15:23:38;4.63;;;4.22;;
66927;SDS011;59882;45.624;11.698;2022-08-03T15:26:04;4.60;;;3.20;;
66927;SDS011;59882;45.624;11.698;2022-08-03T15:28:30;3.37;;;3.07;;
66927;SDS011;59882;45.624;11.698;2022-08-03T15:30:56;4.85;;;3.53;;